| time (UTC) | temp C | wind direction | speed KPH | gust KPH | rain 1hr cm | rain 24hr cm | rain mn cm | humidity % | barometer mb |
| 20260510224516 | 22 | 24 | 11.3 | 25.7 | 0.00 | 0.00 | 0.00 | 57 | 1016.2 |
| 20260510223516 | 22 | 12 | 8.0 | 17.7 | 0.00 | 0.00 | 0.00 | 56 | 1016.2 |
| 20260510222516 | 22 | 14 | 9.7 | 14.5 | 0.00 | 0.00 | 0.00 | 56 | 1016.2 |
| 20260510221516 | 22 | 27 | 12.9 | 17.7 | 0.00 | 0.00 | 0.00 | 56 | 1016.1 |
| 20260510220537 | 22 | 26 | 11.3 | 19.3 | 0.00 | 0.00 | 0.00 | 56 | 1016.1 |
| 20260510215516 | 22 | 23 | 12.9 | 20.9 | 0.00 | 0.00 | 0.00 | 57 | 1016.1 |
| 20260510214516 | 22 | 34 | 11.3 | 19.3 | 0.00 | 0.00 | 0.00 | 58 | 1016.1 |
| 20260510213517 | 22 | 17 | 11.3 | 19.3 | 0.00 | 0.00 | 0.00 | 58 | 1016.2 |
| 20260510212517 | 23 | 28 | 12.9 | 22.5 | 0.00 | 0.00 | 0.00 | 59 | 1016.2 |
| 20260510211517 | 23 | 30 | 9.7 | 17.7 | 0.00 | 0.00 | 0.00 | 61 | 1015.9 |
| 20260510210518 | 24 | 36 | 11.3 | 17.7 | 0.00 | 0.00 | 0.00 | 62 | 1015.5 |
| 20260510205517 | 24 | 13 | 14.5 | 24.1 | 0.00 | 0.00 | 0.00 | 64 | 1015.3 |
| 20260510204518 | 25 | 13 | 11.3 | 20.9 | 0.00 | 0.00 | 0.00 | 64 | 1015.8 |
| 20260510203517 | 26 | 3 | 11.3 | 19.3 | 0.00 | 0.00 | 0.00 | 57 | 1015.0 |
| 20260510202518 | 26 | 331 | 4.8 | 14.5 | 0.00 | 0.00 | 0.00 | 52 | 1015.6 |
| 20260510201517 | 26 | 316 | 4.8 | 9.7 | 0.00 | 0.00 | 0.00 | 52 | 1015.8 |
| 20260510200518 | 26 | 292 | 4.8 | 12.9 | 0.00 | 0.00 | 0.00 | 50 | 1015.2 |
| 20260510195517 | 26 | 336 | 8.0 | 20.9 | 0.00 | 0.00 | 0.00 | 51 | 1015.2 |
| 20260510194518 | 26 | 330 | 6.4 | 12.9 | 0.00 | 0.00 | 0.00 | 51 | 1015.2 |
| 20260510193518 | 25 | 334 | 6.4 | 14.5 | 0.00 | 0.00 | 0.00 | 52 | 1015.7 |
| 20260510192538 | 26 | 348 | 8.0 | 14.5 | 0.00 | 0.00 | 0.00 | 52 | 1015.3 |
| 20260510191518 | 26 | 339 | 6.4 | 12.9 | 0.00 | 0.00 | 0.00 | 51 | 1015.5 |
| 20260510190536 | 26 | 15 | 6.4 | 11.3 | 0.00 | 0.00 | 0.00 | 51 | 1015.4 |
| 20260510185515 | 25 | 358 | 4.8 | 9.7 | 0.00 | 0.00 | 0.00 | 53 | 1015.2 |
| 20260510184537 | 25 | 347 | 4.8 | 11.3 | 0.00 | 0.00 | 0.00 | 52 | 1015.1 |
| 20260510183516 | 26 | 310 | 6.4 | 14.5 | 0.00 | 0.00 | 0.00 | 51 | 1015.0 |
| 20260510182516 | 25 | 294 | 4.8 | 11.3 | 0.00 | 0.00 | 0.00 | 51 | 1015.1 |
| 20260510181516 | 25 | 311 | 6.4 | 14.5 | 0.00 | 0.00 | 0.00 | 53 | 1015.3 |
| 20260510180517 | 25 | 17 | 4.8 | 9.7 | 0.00 | 0.00 | 0.00 | 54 | 1015.3 |
| 20260510175517 | 25 | 22 | 4.8 | 8.0 | 0.00 | 0.00 | 0.00 | 51 | 1015.2 |
| 20260510174517 | 25 | 311 | 4.8 | 11.3 | 0.00 | 0.00 | 0.00 | 55 | 1015.3 |
| 20260510173557 | 24 | 333 | 4.8 | 12.9 | 0.00 | 0.00 | 0.00 | 55 | 1015.3 |
| 20260510172517 | 24 | 12 | 6.4 | 17.7 | 0.00 | 0.00 | 0.00 | 56 | 1015.6 |
| 20260510171517 | 24 | 13 | 8.0 | 14.5 | 0.00 | 0.00 | 0.00 | 56 | 1015.6 |
| 20260510170518 | 24 | 342 | 8.0 | 16.1 | 0.00 | 0.00 | 0.00 | 56 | 1015.9 |
| 20260510165517 | 24 | 2 | 8.0 | 14.5 | 0.00 | 0.00 | 0.00 | 56 | 1015.7 |
| 20260510164539 | 24 | 5 | 8.0 | 14.5 | 0.00 | 0.00 | 0.00 | 57 | 1015.9 |
| 20260510163518 | 24 | 27 | 6.4 | 11.3 | 0.00 | 0.00 | 0.00 | 57 | 1015.3 |
| 20260510162519 | 24 | 15 | 8.0 | 14.5 | 0.00 | 0.00 | 0.00 | 59 | 1015.3 |
| 20260510161518 | 24 | 9 | 6.4 | 16.1 | 0.00 | 0.00 | 0.00 | 59 | 1015.5 |
| 20260510160519 | 25 | 321 | 6.4 | 17.7 | 0.00 | 0.00 | 0.00 | 53 | 1015.1 |
| 20260510155538 | 25 | 303 | 8.0 | 14.5 | 0.00 | 0.00 | 0.00 | 49 | 1015.1 |
| 20260510154558 | 26 | 297 | 8.0 | 14.5 | 0.00 | 0.00 | 0.00 | 47 | 1014.8 |
| 20260510153516 | 25 | 291 | 4.8 | 12.9 | 0.00 | 0.00 | 0.00 | 47 | 1014.7 |
| 20260510152516 | 25 | 299 | 8.0 | 16.1 | 0.00 | 0.00 | 0.00 | 46 | 1014.7 |
| 20260510151516 | 25 | 284 | 4.8 | 11.3 | 0.00 | 0.00 | 0.00 | 48 | 1014.7 |
| 20260510150516 | 25 | 256 | 11.3 | 17.7 | 0.00 | 0.00 | 0.00 | 48 | 1014.5 |
| 20260510145516 | 25 | 263 | 8.0 | 14.5 | 0.00 | 0.00 | 0.00 | 49 | 1014.3 |
| 20260510144537 | 24 | 244 | 6.4 | 12.9 | 0.00 | 0.00 | 0.00 | 49 | 1014.0 |
| 20260510143517 | 23 | 233 | 4.8 | 9.7 | 0.00 | 0.00 | 0.00 | 52 | 1013.8 |
| 20260510142537 | 23 | 232 | 9.7 | 14.5 | 0.00 | 0.00 | 0.00 | 54 | 1013.9 |
| 20260510140518 | 22 | 230 | 6.4 | 12.9 | 0.00 | 0.00 | 0.00 | 58 | 1013.8 |
| 20260510135518 | 22 | 234 | 8.0 | 12.9 | 0.00 | 0.00 | 0.00 | 58 | 1014.1 |
| 20260510134517 | 21 | 233 | 6.4 | 11.3 | 0.00 | 0.00 | 0.00 | 59 | 1014.1 |
| 20260510133517 | 21 | 237 | 4.8 | 9.7 | 0.00 | 0.00 | 0.00 | 61 | 1013.9 |
| 20260510132538 | 20 | 223 | 6.4 | 8.0 | 0.00 | 0.00 | 0.00 | 65 | 1013.9 |
| 20260510131519 | 18 | 216 | 6.4 | 11.3 | 0.00 | 0.00 | 0.00 | 68 | 1014.2 |
| 20260510130539 | 18 | 232 | 8.0 | 11.3 | 0.00 | 0.00 | 0.00 | 68 | 1014.3 |
| 20260510125518 | 18 | 229 | 6.4 | 11.3 | 0.00 | 0.00 | 0.00 | 68 | 1013.9 |
| 20260510124518 | 17 | 222 | 6.4 | 9.7 | 0.00 | 0.00 | 0.00 | 68 | 1013.8 |
| 20260510123519 | 17 | 219 | 6.4 | 9.7 | 0.00 | 0.00 | 0.00 | 71 | 1014.0 |
| 20260510122539 | 16 | 219 | 8.0 | 11.3 | 0.00 | 0.00 | 0.00 | 72 | 1014.0 |
| 20260510121518 | 16 | 230 | 6.4 | 9.7 | 0.00 | 0.00 | 0.00 | 74 | 1013.9 |
| 20260510120519 | 15 | 231 | 6.4 | 9.7 | 0.00 | 0.00 | 0.00 | 75 | 1013.8 |
| 20260510115516 | 15 | 241 | 4.8 | 8.0 | 0.00 | 0.00 | 0.00 | 78 | 1013.8 |
| 20260510114516 | 14 | 218 | 4.8 | 8.0 | 0.00 | 0.00 | 0.00 | 81 | 1013.8 |
| 20260510113536 | 14 | 218 | 3.2 | 4.8 | 0.00 | 0.00 | 0.00 | 81 | 1013.8 |
| 20260510112536 | 14 | 199 | 3.2 | 4.8 | 0.00 | 0.00 | 0.00 | 81 | 1013.9 |
| 20260510111516 | 13 | 222 | 1.6 | 4.8 | 0.00 | 0.00 | 0.00 | 81 | 1013.9 |
| 20260510110536 | 14 | 203 | 3.2 | 4.8 | 0.00 | 0.00 | 0.00 | 80 | 1013.9 |
| 20260510105516 | 14 | 219 | 1.6 | 3.2 | 0.00 | 0.00 | 0.00 | 79 | 1014.1 |
| 20260510104517 | 15 | 206 | 3.2 | 6.4 | 0.00 | 0.00 | 0.00 | 77 | 1013.9 |
| 20260510103517 | 15 | 210 | 3.2 | 6.4 | 0.00 | 0.00 | 0.00 | 73 | 1013.7 |
| 20260510102517 | 15 | 240 | 3.2 | 6.4 | 0.00 | 0.00 | 0.00 | 73 | 1013.7 |
| 20260510101517 | 15 | 351 | 4.8 | 8.0 | 0.00 | 0.00 | 0.00 | 72 | 1013.5 |
| 20260510100517 | 15 | 241 | 3.2 | 8.0 | 0.00 | 0.00 | 0.00 | 72 | 1013.2 |
| 20260510095517 | 13 | 351 | 6.4 | 17.7 | 0.00 | 0.00 | 0.00 | 82 | 1013.6 |
| 20260510094517 | 14 | 289 | 0.0 | 1.6 | 0.00 | 0.00 | 0.00 | 82 | 1013.6 |
| 20260510093518 | 15 | 223 | 0.0 | 3.2 | 0.00 | 0.00 | 0.00 | 80 | 1013.5 |
| 20260510092537 | 15 | 251 | 0.0 | 3.2 | 0.00 | 0.00 | 0.00 | 75 | 1013.2 |
| 20260510091517 | 16 | 239 | 1.6 | 3.2 | 0.00 | 0.00 | 0.00 | 71 | 1013.0 |
| 20260510090518 | 15 | 252 | 3.2 | 6.4 | 0.00 | 0.00 | 0.00 | 73 | 1012.9 |
| 20260510085518 | 16 | 230 | 3.2 | 6.4 | 0.00 | 0.00 | 0.00 | 71 | 1012.7 |
| 20260510084519 | 16 | 223 | 3.2 | 4.8 | 0.00 | 0.00 | 0.00 | 69 | 1012.7 |
| 20260510083519 | 16 | 250 | 3.2 | 4.8 | 0.00 | 0.00 | 0.00 | 73 | 1012.5 |
| 20260510082536 | 16 | 235 | 4.8 | 6.4 | 0.00 | 0.00 | 0.00 | 71 | 1012.4 |
| 20260510081516 | 16 | 226 | 3.2 | 6.4 | 0.00 | 0.00 | 0.00 | 68 | 1012.3 |
| 20260510080515 | 16 | 226 | 4.8 | 8.0 | 0.00 | 0.00 | 0.00 | 69 | 1012.3 |
| 20260510075516 | 16 | 224 | 6.4 | 9.7 | 0.00 | 0.00 | 0.00 | 67 | 1012.1 |
| 20260510074516 | 16 | 231 | 6.4 | 9.7 | 0.00 | 0.00 | 0.00 | 69 | 1012.4 |
| 20260510073517 | 17 | 232 | 4.8 | 6.4 | 0.00 | 0.00 | 0.00 | 68 | 1012.3 |
| 20260510072516 | 17 | 220 | 6.4 | 8.0 | 0.00 | 0.00 | 0.00 | 65 | 1012.1 |
| 20260510071518 | 17 | 252 | 4.8 | 6.4 | 0.00 | 0.00 | 0.00 | 67 | 1012.4 |
| 20260510070517 | 17 | 247 | 4.8 | 6.4 | 0.00 | 0.00 | 0.00 | 65 | 1012.1 |
| 20260510065517 | 17 | 243 | 4.8 | 8.0 | 0.00 | 0.00 | 0.00 | 66 | 1012.0 |
| 20260510064517 | 17 | 240 | 6.4 | 8.0 | 0.00 | 0.00 | 0.00 | 66 | 1012.0 |
| 20260510063518 | 17 | 225 | 6.4 | 8.0 | 0.00 | 0.00 | 0.00 | 66 | 1011.9 |
| 20260510062517 | 17 | 231 | 4.8 | 6.4 | 0.00 | 0.00 | 0.00 | 66 | 1012.0 |
| 20260510061517 | 17 | 229 | 6.4 | 8.0 | 0.00 | 0.00 | 0.00 | 66 | 1012.1 |
| 20260510060518 | 17 | 239 | 4.8 | 6.4 | 0.00 | 0.00 | 0.00 | 67 | 1012.2 |
| 20260510055517 | 17 | 237 | 3.2 | 4.8 | 0.00 | 0.00 | 0.00 | 64 | 1012.0 |
| 20260510054536 | 17 | 242 | 3.2 | 6.4 | 0.00 | 0.00 | 0.00 | 68 | 1012.1 |
| 20260510053516 | 17 | 239 | 4.8 | 4.8 | 0.00 | 0.00 | 0.00 | 68 | 1012.2 |
| 20260510052516 | 17 | 228 | 3.2 | 4.8 | 0.00 | 0.00 | 0.00 | 65 | 1012.1 |
| 20260510051516 | 18 | 236 | 4.8 | 6.4 | 0.00 | 0.00 | 0.00 | 64 | 1011.9 |
| 20260510050516 | 18 | 223 | 3.2 | 6.4 | 0.00 | 0.00 | 0.00 | 64 | 1012.0 |
| 20260510045536 | 18 | 241 | 3.2 | 4.8 | 0.00 | 0.00 | 0.00 | 65 | 1011.8 |
| 20260510044516 | 18 | 239 | 3.2 | 6.4 | 0.00 | 0.00 | 0.00 | 64 | 1011.8 |
| 20260510043516 | 18 | 237 | 4.8 | 6.4 | 0.00 | 0.00 | 0.00 | 62 | 1011.8 |
| 20260510042517 | 18 | 231 | 4.8 | 8.0 | 0.00 | 0.00 | 0.00 | 62 | 1011.8 |
| 20260510041517 | 18 | 233 | 6.4 | 9.7 | 0.00 | 0.00 | 0.00 | 63 | 1011.8 |
| 20260510040517 | 18 | 236 | 6.4 | 9.7 | 0.00 | 0.00 | 0.00 | 63 | 1011.8 |
| 20260510035517 | 18 | 233 | 6.4 | 9.7 | 0.00 | 0.00 | 0.00 | 64 | 1012.0 |
| 20260510034517 | 18 | 233 | 4.8 | 6.4 | 0.00 | 0.00 | 0.00 | 64 | 1012.0 |
| 20260510033518 | 18 | 220 | 4.8 | 6.4 | 0.00 | 0.00 | 0.00 | 62 | 1012.0 |
| 20260510032518 | 18 | 233 | 4.8 | 6.4 | 0.00 | 0.00 | 0.00 | 62 | 1012.0 |
| 20260510031518 | 18 | 235 | 3.2 | 4.8 | 0.00 | 0.00 | 0.00 | 65 | 1012.2 |
| 20260510030519 | 18 | 226 | 3.2 | 4.8 | 0.00 | 0.00 | 0.00 | 66 | 1012.2 |
| 20260510025538 | 19 | 209 | 1.6 | 3.2 | 0.00 | 0.00 | 0.00 | 65 | 1012.2 |
| 20260510024518 | 20 | 211 | 1.6 | 3.2 | 0.00 | 0.00 | 0.00 | 62 | 1012.2 |
| 20260510023518 | 20 | 210 | 1.6 | 4.8 | 0.00 | 0.00 | 0.00 | 58 | 1012.0 |
| 20260510022518 | 21 | 241 | 3.2 | 6.4 | 0.00 | 0.00 | 0.00 | 55 | 1011.8 |
| 20260510021518 | 21 | 240 | 3.2 | 4.8 | 0.00 | 0.00 | 0.00 | 56 | 1011.8 |
| 20260510020516 | 21 | 226 | 3.2 | 4.8 | 0.00 | 0.00 | 0.00 | 55 | 1011.7 |
| 20260510015516 | 22 | 224 | 3.2 | 4.8 | 0.00 | 0.00 | 0.00 | 51 | 1011.4 |
| 20260510014516 | 22 | 241 | 3.2 | 4.8 | 0.00 | 0.00 | 0.00 | 49 | 1011.2 |
| 20260510013516 | 22 | 261 | 3.2 | 6.4 | 0.00 | 0.00 | 0.00 | 49 | 1011.1 |
| 20260510012516 | 22 | 239 | 3.2 | 4.8 | 0.00 | 0.00 | 0.00 | 49 | 1011.1 |
| 20260510011516 | 23 | 242 | 3.2 | 6.4 | 0.00 | 0.00 | 0.00 | 47 | 1011.0 |
| 20260510010536 | 23 | 236 | 4.8 | 6.4 | 0.00 | 0.00 | 0.00 | 45 | 1010.8 |
| 20260510005516 | 23 | 244 | 4.8 | 8.0 | 0.00 | 0.00 | 0.00 | 44 | 1010.7 |
| 20260510004517 | 24 | 218 | 6.4 | 8.0 | 0.00 | 0.00 | 0.00 | 43 | 1010.6 |
| 20260510003517 | 25 | 233 | 4.8 | 8.0 | 0.00 | 0.00 | 0.00 | 41 | 1010.4 |
| 20260510002517 | 25 | 232 | 6.4 | 8.0 | 0.00 | 0.00 | 0.00 | 40 | 1010.2 |
| 20260510001518 | 26 | 245 | 6.4 | 9.7 | 0.00 | 0.00 | 0.00 | 39 | 1010.1 |
| 20260510000518 | 26 | 229 | 8.0 | 11.3 | 0.00 | 0.00 | 0.00 | 38 | 1010.0 |
| 20260509235517 | 26 | 238 | 6.4 | 9.7 | 0.00 | 0.00 | 0.00 | 37 | 1009.8 |
| 20260509234518 | 26 | 242 | 6.4 | 11.3 | 0.00 | 0.00 | 0.00 | 36 | 1009.6 |
| 20260509233518 | 26 | 239 | 8.0 | 14.5 | 0.00 | 0.00 | 0.00 | 36 | 1009.6 |
| 20260509232538 | 26 | 259 | 4.8 | 12.9 | 0.00 | 0.00 | 0.00 | 35 | 1009.6 |
| 20260509231518 | 26 | 224 | 8.0 | 12.9 | 0.00 | 0.00 | 0.00 | 36 | 1009.6 |
| 20260509230538 | 26 | 235 | 6.4 | 12.9 | 0.00 | 0.00 | 0.00 | 35 | 1009.6 |
| 20260509225518 | 27 | 263 | 4.8 | 12.9 | 0.00 | 0.00 | 0.00 | 34 | 1009.7 |